Time;durP1;ratioP1;P1;durP2;ratioP2;P2;SDS_P1;SDS_P2;PMS_P1;PMS_P2;Temp;Humidity;BMP_temperature;BMP_pressure;BME280_temperature;BME280_humidity;BME280_pressure;Samples;Min_cycle;Max_cycle;Signal;HPM_P1;HPM_P2
2022/01/07 00:02:15;;;;;;;6.93;3.50;;;;;;;2.03;78.21;95721.09;4343618;32;20200;-59
2022/01/07 00:04:40;;;;;;;3.93;3.63;;;;;;;2.12;78.36;95732.78;4363483;32;20169;-59
2022/01/07 00:07:07;;;;;;;3.83;3.47;;;;;;;2.11;78.07;95719.94;4358506;32;20276;-59
2022/01/07 00:09:32;;;;;;;6.00;4.13;;;;;;;2.03;78.81;95716.66;4360282;32;20184;-59
2022/01/07 00:11:59;;;;;;;5.07;3.50;;;;;;;2.03;78.48;95719.28;4358705;32;20300;-59
2022/01/07 00:14:24;;;;;;;8.07;5.20;;;;;;;1.83;79.71;95718.06;4348681;32;20180;-59
2022/01/07 00:16:50;;;;;;;4.37;3.97;;;;;;;1.70;79.89;95730.31;4342911;32;20273;-60
2022/01/07 00:19:17;;;;;;;6.70;4.03;;;;;;;1.91;79.84;95728.94;4358117;32;20242;-59
2022/01/07 00:21:44;;;;;;;4.10;3.80;;;;;;;1.59;80.50;95732.94;4362434;32;22650;-59
2022/01/07 00:24:09;;;;;;;6.90;3.67;;;;;;;1.53;81.13;95732.03;4350929;32;20288;-59
2022/01/07 00:26:34;;;;;;;7.13;3.87;;;;;;;1.70;80.92;95727.72;4373150;32;20322;-59
2022/01/07 00:28:59;;;;;;;3.73;3.43;;;;;;;2.06;79.22;95728.50;4359457;32;20180;-59
2022/01/07 00:31:25;;;;;;;4.33;3.00;;;;;;;1.74;79.44;95725.44;4370652;32;20200;-59
2022/01/07 00:33:50;;;;;;;3.90;3.47;;;;;;;2.12;78.26;95721.53;4374115;32;20169;-59
2022/01/07 00:36:15;;;;;;;3.47;3.17;;;;;;;1.81;78.44;95730.56;4353276;32;20196;-59
2022/01/07 00:38:41;;;;;;;3.67;3.37;;;;;;;1.65;79.49;95726.81;4371482;32;20184;-60
2022/01/07 00:41:07;;;;;;;3.07;2.77;;;;;;;1.92;78.15;95725.31;4365810;32;20243;-60
2022/01/07 00:43:32;;;;;;;2.90;2.67;;;;;;;1.82;77.87;95722.50;4353047;32;20212;-59
2022/01/07 00:45:58;;;;;;;3.47;2.70;;;;;;;1.95;77.29;95716.22;4342900;32;20277;-59
2022/01/07 00:48:23;;;;;;;2.70;2.50;;;;;;;1.93;77.60;95715.66;4353249;32;20224;-61
2022/01/07 00:50:48;;;;;;;3.00;2.53;;;;;;;2.14;76.42;95712.44;4352734;32;20238;-59
2022/01/07 00:53:14;;;;;;;2.90;2.60;;;;;;;2.13;76.06;95707.44;4361002;32;20255;-59
2022/01/07 00:55:40;;;;;;;2.80;2.27;;;;;;;1.93;76.84;95698.12;4343233;32;20238;-59
2022/01/07 00:58:05;;;;;;;3.70;2.83;;;;;;;1.87;76.60;95699.03;4358075;32;20194;-60
2022/01/07 01:00:31;;;;;;;3.63;2.50;;;;;;;1.85;76.68;95690.66;4368672;32;20299;-59
2022/01/07 01:02:56;;;;;;;3.23;2.83;;;;;;;1.77;76.48;95687.56;4347434;32;20181;-59
2022/01/07 01:05:23;;;;;;;2.67;2.43;;;;;;;1.47;78.28;95692.91;4349024;32;20208;-59
2022/01/07 01:07:48;;;;;;;3.20;2.80;;;;;;;1.58;77.89;95682.47;4352826;32;20238;-59
2022/01/07 01:10:17;;;;;;;3.10;2.80;;;;;;;1.14;78.47;95691.66;4361824;32;20267;-59
2022/01/07 01:12:44;;;;;;;3.53;2.92;;;;;;;0.86;80.13;95691.44;4350966;32;20276;-59
2022/01/07 01:15:14;;;;;;;3.30;2.95;;;;;;;0.81;81.01;95694.75;4361186;32;20235;-59
2022/01/07 01:17:40;;;;;;;3.85;2.92;;;;;;;1.15;79.90;95687.22;4357624;32;20201;-59
2022/01/07 01:20:09;;;;;;;2.53;2.33;;;;;;;1.30;79.30;95677.91;4353903;32;20181;-59
2022/01/07 01:22:35;;;;;;;2.35;2.15;;;;;;;1.39;78.40;95681.00;4355109;32;20182;-59
2022/01/07 01:25:00;;;;;;;4.30;2.50;;;;;;;1.20;78.28;95682.91;4346462;32;20220;-58
2022/01/07 01:27:25;;;;;;;3.30;2.67;;;;;;;1.51;77.62;95675.75;4353169;32;20185;-59
2022/01/07 01:29:51;;;;;;;3.10;2.90;;;;;;;1.60;76.95;95674.41;4371188;32;20245;-60
2022/01/07 01:32:16;;;;;;;3.23;2.50;;;;;;;1.45;77.20;95664.41;4348974;32;20197;-59
2022/01/07 01:34:42;;;;;;;2.73;2.40;;;;;;;1.58;76.60;95671.22;4345379;32;20199;-59
2022/01/07 01:37:08;;;;;;;2.53;2.33;;;;;;;1.43;77.51;95669.06;4368121;32;20185;-59
2022/01/07 01:39:34;;;;;;;2.23;2.03;;;;;;;1.31;78.04;95668.25;4347670;32;20239;-59
2022/01/07 01:41:59;;;;;;;2.73;2.20;;;;;;;1.00;78.69;95667.56;4363529;32;20211;-59
2022/01/07 01:44:25;;;;;;;2.73;2.53;;;;;;;0.51;80.26;95668.66;4356708;32;20185;-59
2022/01/07 01:46:51;;;;;;;2.43;2.33;;;;;;;0.64;80.49;95667.66;4353796;32;20249;-59
2022/01/07 01:49:17;;;;;;;2.10;2.00;;;;;;;0.76;79.98;95665.91;4346056;32;20226;-59
2022/01/07 01:51:43;;;;;;;2.35;2.00;;;;;;;1.02;79.12;95654.28;4370475;32;20185;-59
2022/01/07 01:54:09;;;;;;;3.47;1.90;;;;;;;0.81;79.25;95658.19;4362970;32;20220;-60
2022/01/07 01:56:34;;;;;;;5.17;2.73;;;;;;;1.08;77.93;95648.13;4363919;32;20272;-59
2022/01/07 01:59:00;;;;;;;2.47;2.30;;;;;;;1.21;77.23;95647.13;4368239;32;20238;-59
2022/01/07 02:01:26;;;;;;;2.33;1.87;;;;;;;0.86;78.25;95657.50;4356386;32;20196;-59
2022/01/07 02:03:51;;;;;;;3.20;2.37;;;;;;;0.73;78.82;95650.69;4360311;32;20212;-60
2022/01/07 02:06:16;;;;;;;3.00;2.50;;;;;;;0.84;78.22;95643.88;4352669;32;20523;-59
2022/01/07 02:08:42;;;;;;;2.80;2.10;;;;;;;1.04;76.86;95650.38;4370455;32;20188;-59
2022/01/07 02:11:07;;;;;;;1.80;1.70;;;;;;;0.69;78.27;95658.16;4365617;32;20180;-59
2022/01/07 02:13:33;;;;;;;2.30;2.20;;;;;;;0.56;78.88;95637.47;4352427;32;20223;-59
2022/01/07 02:15:59;;;;;;;1.87;1.73;;;;;;;1.01;77.91;95642.22;4364095;32;20185;-59
2022/01/07 02:18:24;;;;;;;4.07;2.60;;;;;;;0.69;78.06;95639.88;4372989;32;20255;-59
2022/01/07 02:20:50;;;;;;;1.90;1.67;;;;;;;0.83;78.10;95635.25;4376655;32;20205;-59
2022/01/07 02:23:17;;;;;;;2.20;2.00;;;;;;;0.79;77.78;95639.34;4372979;32;20279;-59
2022/01/07 02:25:45;;;;;;;3.10;1.87;;;;;;;0.46;78.09;95631.19;4356948;32;20272;-60
2022/01/07 02:28:11;;;;;;;2.00;1.75;;;;;;;0.90;77.33;95624.72;4359805;32;20243;-59
2022/01/07 02:30:37;;;;;;;1.92;1.52;;;;;;;0.85;77.08;95632.41;4356125;32;20177;-59
2022/01/07 02:33:02;;;;;;;1.87;1.70;;;;;;;0.96;76.28;95647.31;4357441;32;20216;-59
2022/01/07 02:35:30;;;;;;;2.97;1.93;;;;;;;0.75;77.50;95634.78;4335645;32;20200;-59
2022/01/07 02:37:57;;;;;;;2.15;2.05;;;;;;;0.67;77.54;95636.69;4347158;32;20186;-59
2022/01/07 02:40:22;;;;;;;2.28;2.08;;;;;;;1.03;75.83;95630.53;4373953;32;20197;-59
2022/01/07 02:42:48;;;;;;;2.03;1.83;;;;;;;1.25;74.47;95628.16;4358285;32;20207;-59
2022/01/07 02:45:14;;;;;;;1.70;1.60;;;;;;;1.06;74.91;95629.28;4357799;32;20199;-59
2022/01/07 02:48:03;;;;;;;1.70;1.57;;;;;;;1.26;74.38;95624.50;4366313;32;20212;-59
2022/01/07 02:50:38;;;;;;;2.92;1.92;;;;;;;1.11;74.01;95618.94;4353236;32;20261;-59
2022/01/07 02:53:08;;;;;;;3.03;1.42;;;;;;;0.99;74.77;95618.16;4357676;32;20191;-59
2022/01/07 02:55:34;;;;;;;2.03;1.83;;;;;;;1.05;74.73;95614.62;4360511;32;20173;-59
2022/01/07 02:57:59;;;;;;;2.37;1.77;;;;;;;0.98;74.90;95621.78;4352147;32;20176;-59
2022/01/07 03:00:26;;;;;;;2.00;1.80;;;;;;;0.96;74.72;95618.59;4357052;32;20181;-60
2022/01/07 03:02:53;;;;;;;1.70;1.60;;;;;;;1.02;74.39;95607.25;4366032;32;20239;-59
2022/01/07 03:05:19;;;;;;;2.30;1.70;;;;;;;0.86;74.96;95608.69;4360230;32;20177;-59
2022/01/07 03:07:47;;;;;;;1.90;1.67;;;;;;;0.94;74.78;95610.19;4351026;32;20169;-59
2022/01/07 03:10:13;;;;;;;1.60;1.50;;;;;;;1.07;74.44;95596.91;4359825;32;20252;-59
2022/01/07 03:12:40;;;;;;;1.70;1.60;;;;;;;1.00;74.19;95598.84;4357399;32;20231;-59
2022/01/07 03:15:07;;;;;;;3.25;1.62;;;;;;;1.12;73.56;95607.47;4339761;32;20162;-59
2022/01/07 03:17:32;;;;;;;3.60;2.08;;;;;;;1.05;73.81;95606.78;4358400;32;20184;-60
2022/01/07 03:19:57;;;;;;;2.27;1.80;;;;;;;0.97;73.87;95602.72;4361120;32;20222;-59
2022/01/07 03:22:23;;;;;;;4.57;2.10;;;;;;;0.97;73.92;95599.31;4355174;32;20233;-59
2022/01/07 03:24:48;;;;;;;1.60;1.47;;;;;;;0.84;74.75;95595.06;4375153;32;20188;-59
2022/01/07 03:27:13;;;;;;;2.47;2.07;;;;;;;0.89;73.98;95602.22;4376750;32;20189;-59
2022/01/07 03:29:39;;;;;;;2.00;1.90;;;;;;;0.62;75.34;95597.41;4351673;32;20245;-59
2022/01/07 03:32:04;;;;;;;1.80;1.70;;;;;;;0.89;75.07;95600.41;4359571;32;20202;-59
2022/01/07 03:34:30;;;;;;;2.07;1.50;;;;;;;1.06;73.40;95591.91;4354806;32;20250;-59
2022/01/07 03:36:55;;;;;;;1.77;1.67;;;;;;;1.04;73.19;95592.12;4362609;32;20217;-59
2022/01/07 03:39:22;;;;;;;2.87;2.00;;;;;;;0.84;74.20;95592.47;4360804;32;20181;-59
2022/01/07 03:41:49;;;;;;;2.17;1.42;;;;;;;0.75;74.30;95593.81;4358182;32;20189;-59
2022/01/07 03:44:14;;;;;;;1.87;1.75;;;;;;;0.89;73.92;95589.19;4346540;32;20190;-60
2022/01/07 03:46:39;;;;;;;3.13;1.77;;;;;;;0.61;74.15;95593.25;4345989;32;20278;-60
2022/01/07 03:49:05;;;;;;;1.60;1.50;;;;;;;0.73;74.33;95585.41;4355060;32;20185;-59
2022/01/07 03:51:30;;;;;;;1.90;1.70;;;;;;;0.58;75.14;95580.63;4350106;32;20323;-59
2022/01/07 03:53:55;;;;;;;1.70;1.60;;;;;;;0.66;74.60;95569.06;4356434;32;20208;-59
2022/01/07 03:56:21;;;;;;;2.10;1.90;;;;;;;0.75;74.15;95574.75;4354155;32;20172;-59
2022/01/07 03:58:47;;;;;;;1.90;1.80;;;;;;;0.43;75.48;95582.84;4357772;32;20177;-59
2022/01/07 04:01:13;;;;;;;3.37;2.05;;;;;;;0.67;74.24;95586.31;4357756;32;20195;-59
2022/01/07 04:03:39;;;;;;;2.60;1.90;;;;;;;0.97;73.35;95583.62;4361660;32;20232;-59
2022/01/07 04:06:04;;;;;;;2.50;2.07;;;;;;;0.83;72.87;95577.81;4364179;32;20186;-59
2022/01/07 04:08:30;;;;;;;1.80;1.70;;;;;;;0.62;73.56;95586.97;4361547;32;20278;-59
2022/01/07 04:10:55;;;;;;;1.77;1.67;;;;;;;0.74;73.59;95586.22;4349296;32;20200;-59
2022/01/07 04:13:21;;;;;;;1.80;1.70;;;;;;;0.24;74.82;95599.56;4374514;32;20197;-58
2022/01/07 04:15:46;;;;;;;2.20;1.70;;;;;;;0.45;74.59;95596.47;4359692;32;20188;-59
2022/01/07 04:18:11;;;;;;;1.97;1.70;;;;;;;0.62;73.82;95602.63;4355428;32;20177;-59
2022/01/07 04:20:37;;;;;;;2.33;1.70;;;;;;;0.85;72.61;95585.41;4368627;32;20177;-58
2022/01/07 04:23:05;;;;;;;1.90;1.70;;;;;;;0.62;73.51;95594.03;4360343;32;20199;-59
2022/01/07 04:25:31;;;;;;;1.50;1.40;;;;;;;0.61;73.10;95595.84;4368442;32;20383;-59
2022/01/07 04:28:03;;;;;;;1.70;1.60;;;;;;;0.80;72.78;95608.81;4367754;32;20227;-59
2022/01/07 04:30:31;;;;;;;1.80;1.50;;;;;;;0.83;72.38;95601.31;4365843;32;20169;-60
2022/01/07 04:32:57;;;;;;;1.40;1.30;;;;;;;0.77;71.89;95596.22;4360915;32;20181;-60
2022/01/07 04:35:23;;;;;;;2.47;1.40;;;;;;;0.66;72.60;95592.53;4351479;32;20177;-59
2022/01/07 04:37:49;;;;;;;4.37;1.60;;;;;;;0.83;71.81;95587.50;4355541;32;20176;-59
2022/01/07 04:40:16;;;;;;;2.00;1.80;;;;;;;0.50;72.63;95587.97;4358016;32;20203;-59
2022/01/07 04:42:42;;;;;;;2.00;1.73;;;;;;;0.59;73.00;95587.44;4352930;32;20191;-59
2022/01/07 04:45:09;;;;;;;1.50;1.33;;;;;;;0.50;72.60;95587.97;4349491;32;20186;-59
2022/01/07 04:47:36;;;;;;;3.10;1.60;;;;;;;0.51;72.57;95595.59;4368421;32;20192;-59
2022/01/07 04:50:11;;;;;;;2.50;1.73;;;;;;;0.53;72.79;95590.16;4353589;32;20262;-59
2022/01/07 04:52:38;;;;;;;3.10;1.85;;;;;;;0.59;71.83;95594.47;4361479;32;20180;-59
2022/01/07 04:55:04;;;;;;;1.73;1.40;;;;;;;0.77;71.26;95588.37;4371248;32;20176;-59
2022/01/07 04:57:30;;;;;;;1.25;1.15;;;;;;;0.52;72.28;95599.78;4356931;32;20198;-59
2022/01/07 04:59:55;;;;;;;1.57;1.47;;;;;;;0.59;72.14;95597.09;4354573;32;20180;-59
2022/01/07 05:02:20;;;;;;;1.47;1.43;;;;;;;0.53;72.00;95597.97;4349081;32;20215;-59
2022/01/07 05:04:47;;;;;;;1.40;1.30;;;;;;;0.50;71.77;95595.81;4352703;32;20264;-59
2022/01/07 05:07:12;;;;;;;1.50;1.40;;;;;;;0.30;73.10;95593.47;4355808;32;20177;-60
2022/01/07 05:09:38;;;;;;;1.50;1.40;;;;;;;0.15;72.70;95601.72;4357162;32;20200;-60
2022/01/07 05:12:04;;;;;;;1.73;1.27;;;;;;;0.30;73.03;95593.47;4369866;32;20181;-59
2022/01/07 05:14:29;;;;;;;1.83;1.23;;;;;;;0.41;72.22;95597.16;4358878;32;20177;-59
2022/01/07 05:16:56;;;;;;;1.90;1.43;;;;;;;0.40;71.73;95596.37;4371747;32;20199;-59
2022/01/07 05:19:21;;;;;;;1.80;1.40;;;;;;;0.54;71.38;95597.75;4371286;32;20208;-59
2022/01/07 05:21:46;;;;;;;1.10;1.03;;;;;;;0.44;71.19;95599.31;4367238;32;20173;-59
2022/01/07 05:24:12;;;;;;;1.00;0.97;;;;;;;0.13;71.28;95608.16;4346590;32;20238;-59
2022/01/07 05:26:37;;;;;;;1.03;1.03;;;;;;;0.17;72.21;95604.91;4347462;32;20184;-59
2022/01/07 05:29:04;;;;;;;1.40;1.30;;;;;;;0.29;71.80;95610.16;4370858;32;20196;-59
2022/01/07 05:31:29;;;;;;;1.55;1.45;;;;;;;0.39;70.99;95599.19;4350355;32;20268;-58
2022/01/07 05:33:55;;;;;;;3.03;2.10;;;;;;;0.44;71.10;95588.87;4368193;32;20181;-59
2022/01/07 05:36:21;;;;;;;3.47;1.20;;;;;;;0.41;71.02;95599.78;4353795;32;20201;-59
2022/01/07 05:38:47;;;;;;;3.70;1.15;;;;;;;0.29;71.60;95597.91;4361060;32;20277;-59
2022/01/07 05:41:13;;;;;;;2.03;1.70;;;;;;;0.23;72.21;95603.19;4360954;32;20200;-59
2022/01/07 05:43:39;;;;;;;1.97;1.47;;;;;;;0.28;71.51;95604.13;4351210;32;20288;-59
2022/01/07 05:46:10;;;;;;;2.03;1.23;;;;;;;0.22;71.61;95601.63;4358372;32;20207;-59
2022/01/07 05:48:36;;;;;;;1.33;1.23;;;;;;;0.07;72.50;95603.81;4361901;32;20173;-59
2022/01/07 05:51:01;;;;;;;1.70;1.60;;;;;;;0.43;71.28;95603.72;4365785;32;20231;-58
2022/01/07 05:53:26;;;;;;;1.37;1.27;;;;;;;0.23;72.06;95611.03;4369970;32;20193;-59
2022/01/07 05:55:52;;;;;;;2.23;1.20;;;;;;;-0.24;73.11;95610.84;4370192;32;20226;-59
2022/01/07 05:58:17;;;;;;;1.73;1.37;;;;;;;-0.42;74.33;95605.63;4378292;32;20188;-59
2022/01/07 06:00:42;;;;;;;2.43;1.30;;;;;;;-0.06;73.71;95608.19;4351601;32;20248;-60
2022/01/07 06:03:08;;;;;;;1.20;1.10;;;;;;;-0.12;73.55;95606.47;4370167;32;20178;-59
2022/01/07 06:05:33;;;;;;;1.83;1.23;;;;;;;-0.12;73.01;95605.66;4366683;32;20229;-59
2022/01/07 06:07:58;;;;;;;1.63;1.40;;;;;;;-0.19;73.36;95605.72;4360958;32;20204;-60
2022/01/07 06:10:24;;;;;;;1.83;1.20;;;;;;;-0.12;73.36;95605.66;4374003;32;20285;-59
2022/01/07 06:12:49;;;;;;;1.70;1.50;;;;;;;-0.24;73.27;95600.41;4354067;32;20189;-59
2022/01/07 06:15:14;;;;;;;1.23;0.90;;;;;;;-0.01;72.34;95597.13;4355237;32;20268;-59
2022/01/07 06:17:40;;;;;;;1.07;0.97;;;;;;;0.26;71.60;95598.34;4365530;32;20258;-59
2022/01/07 06:20:07;;;;;;;1.67;1.57;;;;;;;-0.22;72.23;95594.97;4356817;32;20180;-59
2022/01/07 06:22:32;;;;;;;1.40;1.30;;;;;;;0.03;71.94;95600.84;4357567;32;20189;-60
2022/01/07 06:24:58;;;;;;;2.10;1.77;;;;;;;0.06;71.71;95597.81;4349755;32;20226;-59
2022/01/07 06:27:23;;;;;;;3.03;1.67;;;;;;;-0.12;72.51;95601.25;4358397;32;20177;-59
2022/01/07 06:29:48;;;;;;;1.97;1.40;;;;;;;-0.26;73.12;95599.81;4360140;32;20264;-59
2022/01/07 06:32:14;;;;;;;1.63;1.40;;;;;;;0.06;72.27;95600.41;4349262;32;20192;-58
2022/01/07 06:34:39;;;;;;;1.10;1.10;;;;;;;-0.17;72.65;95603.72;4353924;32;20185;-59
2022/01/07 06:37:05;;;;;;;3.47;1.53;;;;;;;-0.27;72.96;95600.03;4360738;32;20181;-60
2022/01/07 06:39:32;;;;;;;1.90;1.80;;;;;;;-0.34;73.21;95605.31;4352609;32;20232;-59
2022/01/07 06:41:58;;;;;;;1.40;1.30;;;;;;;-0.11;72.47;95604.66;4368248;32;20177;-59
2022/01/07 06:44:24;;;;;;;1.25;1.05;;;;;;;-0.17;72.39;95600.31;4353731;32;20177;-60
2022/01/07 06:46:50;;;;;;;1.00;1.00;;;;;;;-0.29;72.77;95600.25;4372580;32;20291;-59
2022/01/07 06:49:15;;;;;;;1.23;1.13;;;;;;;-0.25;72.91;95596.22;4357648;32;20177;-59
2022/01/07 06:51:43;;;;;;;1.17;1.07;;;;;;;-0.16;72.79;95601.91;4361893;32;20231;-59
2022/01/07 06:54:11;;;;;;;1.10;1.00;;;;;;;-0.22;72.66;95611.41;4359671;32;20234;-59
2022/01/07 06:56:42;;;;;;;2.55;1.10;;;;;;;-0.18;72.60;95611.75;4368619;32;20194;-59
2022/01/07 06:59:07;;;;;;;1.50;1.40;;;;;;;-0.30;73.17;95608.28;4354064;32;20173;-59
2022/01/07 07:01:33;;;;;;;1.50;1.40;;;;;;;-0.01;72.29;95610.16;4350766;32;20191;-58
2022/01/07 07:03:59;;;;;;;1.83;1.27;;;;;;;-0.19;73.13;95608.34;4373183;32;20188;-59
2022/01/07 07:06:25;;;;;;;1.27;1.17;;;;;;;-0.14;73.29;95603.28;4368775;32;20199;-59
2022/01/07 07:08:50;;;;;;;1.53;1.20;;;;;;;-0.12;72.72;95606.47;4368369;32;20271;-59
2022/01/07 07:11:16;;;;;;;1.93;1.30;;;;;;;-0.13;72.93;95598.88;4362188;32;20203;-58
2022/01/07 07:13:41;;;;;;;1.63;1.47;;;;;;;-0.11;72.91;95602.84;4361497;32;20302;-58
2022/01/07 07:16:06;;;;;;;1.10;1.00;;;;;;;0.02;72.87;95603.69;4355421;32;20255;-59
2022/01/07 07:18:32;;;;;;;1.73;1.33;;;;;;;0.02;72.47;95596.66;4356133;32;20275;-59
2022/01/07 07:20:58;;;;;;;1.23;1.10;;;;;;;-0.05;72.92;95593.34;4356117;32;20168;-59
2022/01/07 07:23:23;;;;;;;1.62;1.20;;;;;;;-0.14;73.51;95603.28;4342273;32;20190;-59
2022/01/07 07:25:49;;;;;;;3.37;1.00;;;;;;;-0.09;73.12;95595.59;4360337;32;20243;-59
2022/01/07 07:28:15;;;;;;;2.63;1.57;;;;;;;-0.14;73.53;95592.84;4365187;32;20294;-58
2022/01/07 07:30:42;;;;;;;1.65;1.42;;;;;;;-0.21;73.44;95599.97;4346249;32;20270;-59
2022/01/07 07:38:36;;;;;;;2.10;1.50;;;;;;;-0.17;74.21;95616.75;4359669;32;20303;-59
2022/01/07 07:41:06;;;;;;;1.60;1.50;;;;;;;-0.22;74.58;95614.03;4369785;32;20197;-59
2022/01/07 07:43:32;;;;;;;1.77;1.67;;;;;;;-0.12;74.15;95616.88;4357802;32;20243;-59
2022/01/07 07:45:57;;;;;;;2.00;1.90;;;;;;;0.07;74.13;95619.47;4353598;32;20214;-59
2022/01/07 07:48:22;;;;;;;2.67;1.67;;;;;;;0.43;72.75;95616.78;4354768;32;20170;-59
2022/01/07 07:50:48;;;;;;;2.47;2.00;;;;;;;0.41;72.68;95611.00;4346686;32;20223;-59
2022/01/07 07:53:13;;;;;;;2.50;1.40;;;;;;;0.50;72.44;95603.63;4354000;32;20244;-59
2022/01/07 07:55:38;;;;;;;1.67;1.53;;;;;;;0.39;72.27;95601.81;4360437;32;20177;-59
2022/01/07 07:58:04;;;;;;;2.30;1.73;;;;;;;0.41;72.28;95607.59;4374616;32;20185;-59
2022/01/07 08:00:31;;;;;;;2.00;1.73;;;;;;;0.40;72.23;95611.22;4372795;32;20173;-59
2022/01/07 08:02:57;;;;;;;3.78;1.62;;;;;;;0.11;73.10;95611.00;4351936;32;20176;-59
2022/01/07 08:05:22;;;;;;;2.00;1.70;;;;;;;0.21;73.67;95610.44;4351074;32;20177;-59
2022/01/07 08:07:48;;;;;;;3.53;1.30;;;;;;;0.26;73.67;95607.97;4362408;32;20272;-60
2022/01/07 08:10:13;;;;;;;2.27;1.93;;;;;;;0.32;73.04;95623.56;4369327;32;20275;-59
2022/01/07 08:18:00;;;;;;;2.17;1.58;;;;;;;0.45;73.29;95617.34;4358791;32;20207;-59
2022/01/07 08:20:25;;;;;;;1.70;1.60;;;;;;;0.41;73.57;95618.03;4345923;32;20212;-59
2022/01/07 08:22:51;;;;;;;1.60;1.50;;;;;;;0.58;73.09;95609.34;4353548;32;20220;-59
2022/01/07 08:25:16;;;;;;;2.03;1.90;;;;;;;0.56;73.14;95608.78;4361301;32;20208;-59
2022/01/07 08:27:42;;;;;;;1.80;1.63;;;;;;;0.63;73.26;95601.63;4353670;32;20236;-59
2022/01/07 08:30:22;;;;;;;2.67;2.43;;;;;;;0.55;73.08;95606.38;4355692;32;20208;-59
2022/01/07 08:35:31;;;;;;;3.17;1.73;;;;;;;0.40;74.06;95603.41;4359084;32;20531;-59
2022/01/07 08:37:57;;;;;;;3.60;1.50;;;;;;;0.82;73.30;95596.34;4351803;32;20264;-58
2022/01/07 08:40:23;;;;;;;1.87;1.63;;;;;;;0.72;73.22;95593.47;4362976;32;20188;-59
2022/01/07 08:42:48;;;;;;;2.10;1.40;;;;;;;0.79;73.10;95599.41;4343764;32;20181;-59
2022/01/07 08:45:13;;;;;;;1.73;1.40;;;;;;;0.98;72.73;95598.28;4349627;32;21474;-59
2022/01/07 08:47:38;;;;;;;1.40;1.30;;;;;;;1.29;71.25;95594.53;4359469;32;20188;-59
2022/01/07 08:50:04;;;;;;;2.03;1.50;;;;;;;1.40;70.73;95603.41;4364766;32;20203;-59
2022/01/07 08:52:30;;;;;;;1.73;1.63;;;;;;;1.32;70.78;95592.25;4367851;32;20192;-59
2022/01/07 08:54:55;;;;;;;1.40;1.30;;;;;;;1.50;70.23;95593.13;4360667;32;20295;-59
2022/01/07 08:57:21;;;;;;;3.23;1.93;;;;;;;1.67;69.27;95594.81;4357145;32;20221;-58
2022/01/07 08:59:48;;;;;;;1.93;1.70;;;;;;;1.53;69.09;95590.88;4351987;32;20187;-59
2022/01/07 09:02:13;;;;;;;1.65;1.15;;;;;;;1.08;70.67;95590.66;4365377;32;20244;-59
2022/01/07 09:04:39;;;;;;;1.60;1.50;;;;;;;1.27;70.92;95593.94;4338276;32;20215;-58
2022/01/07 09:07:04;;;;;;;2.70;1.60;;;;;;;1.78;69.63;95590.59;4349772;32;20243;-59
2022/01/07 09:09:30;;;;;;;1.97;1.53;;;;;;;1.94;68.87;95589.06;4371833;32;20243;-58
2022/01/07 09:11:55;;;;;;;4.03;1.67;;;;;;;1.81;69.43;95599.81;4338425;32;20189;-59
2022/01/07 09:14:20;;;;;;;1.60;1.47;;;;;;;1.82;69.21;95594.34;4372994;32;20181;-59
2022/01/07 09:16:46;;;;;;;2.30;1.60;;;;;;;1.88;68.88;95596.00;4365489;32;20192;-59
2022/01/07 09:19:11;;;;;;;4.27;1.67;;;;;;;1.80;69.17;95590.38;4370096;32;20240;-59
2022/01/07 09:21:37;;;;;;;2.10;1.60;;;;;;;1.80;69.76;95593.78;4341580;32;20232;-59
2022/01/07 09:24:02;;;;;;;2.53;1.63;;;;;;;1.98;69.58;95591.00;4362089;32;20180;-59
2022/01/07 09:26:27;;;;;;;2.50;1.80;;;;;;;2.13;68.92;95594.91;4367822;32;20250;-59
2022/01/07 09:28:53;;;;;;;1.47;1.40;;;;;;;2.15;68.71;95579.78;4364649;32;20288;-59
2022/01/07 09:31:19;;;;;;;1.70;1.30;;;;;;;2.08;68.07;95583.31;4362489;32;20192;-59
2022/01/07 09:33:45;;;;;;;1.20;1.20;;;;;;;2.20;68.77;95577.28;4357802;32;20345;-59
2022/01/07 09:36:10;;;;;;;2.13;1.90;;;;;;;2.56;67.24;95581.28;4367639;32;20300;-59
2022/01/07 09:38:36;;;;;;;1.57;1.40;;;;;;;2.79;65.63;95572.50;4365088;32;20189;-59
2022/01/07 09:41:01;;;;;;;1.33;1.20;;;;;;;2.57;65.98;95577.66;4362623;32;20291;-59
2022/01/07 09:43:27;;;;;;;1.80;1.60;;;;;;;2.52;65.93;95573.13;4354745;32;20255;-59
2022/01/07 09:45:53;;;;;;;1.53;1.43;;;;;;;2.81;65.08;95573.06;4365563;32;20178;-59
2022/01/07 09:48:18;;;;;;;1.60;1.50;;;;;;;2.63;64.61;95564.41;4352940;32;20204;-58
2022/01/07 09:50:45;;;;;;;2.83;1.10;;;;;;;2.49;64.98;95563.13;4362159;32;20285;-58
2022/01/07 09:53:15;;;;;;;3.30;1.20;;;;;;;2.30;65.36;95556.50;4367953;32;20181;-59
2022/01/07 09:55:42;;;;;;;2.27;1.30;;;;;;;2.15;65.85;95549.19;4364256;32;20276;-59
2022/01/07 09:58:07;;;;;;;2.67;1.10;;;;;;;2.38;64.88;95554.31;4362734;32;20319;-59
2022/01/07 10:00:44;;;;;;;1.00;1.00;;;;;;;2.72;63.11;95554.31;4355124;32;20293;-59
2022/01/07 10:03:15;;;;;;;1.57;1.47;;;;;;;2.77;62.97;95559.66;4364328;32;20188;-59
2022/01/07 10:05:49;;;;;;;2.80;1.30;;;;;;;3.13;61.84;95555.72;4365402;32;20304;-59
2022/01/07 10:08:15;;;;;;;2.37;1.30;;;;;;;3.32;60.67;95548.41;4363227;32;20389;-59
2022/01/07 10:10:41;;;;;;;1.30;1.20;;;;;;;3.29;60.31;95541.81;4357401;32;20289;-59
2022/01/07 10:13:06;;;;;;;1.73;1.33;;;;;;;3.45;59.40;95548.84;4349416;32;20185;-59
2022/01/07 10:15:34;;;;;;;2.57;1.27;;;;;;;3.13;60.82;95547.88;4355941;32;20188;-59
2022/01/07 10:18:07;;;;;;;0.93;0.90;;;;;;;2.96;61.70;95549.72;4362500;32;20215;-59
2022/01/07 10:20:36;;;;;;;0.93;0.90;;;;;;;3.06;61.17;95547.25;4374147;32;20372;-59
2022/01/07 10:23:23;;;;;;;1.33;1.23;;;;;;;2.62;62.57;95544.50;4341529;32;20345;-59
2022/01/07 10:25:55;;;;;;;3.23;1.10;;;;;;;2.78;62.84;95540.28;4358888;32;20301;-60
2022/01/07 10:28:28;;;;;;;1.43;1.10;;;;;;;2.74;63.46;95531.31;4355618;32;20353;-59
2022/01/07 10:30:54;;;;;;;2.10;1.10;;;;;;;2.53;63.76;95532.81;4363155;32;20281;-59
2022/01/07 10:33:28;;;;;;;2.20;1.63;;;;;;;2.95;62.83;95533.19;4360865;32;20309;-59
2022/01/07 10:36:05;;;;;;;1.00;1.00;;;;;;;2.68;63.21;95522.59;4362931;32;20303;-59
2022/01/07 10:38:31;;;;;;;1.27;0.77;;;;;;;2.63;63.39;95519.09;4352631;32;20277;-59
2022/01/07 10:41:00;;;;;;;2.33;2.13;;;;;;;2.51;63.48;95521.78;4348920;32;20372;-59
2022/01/07 10:43:36;;;;;;;1.53;0.57;;;;;;;2.38;63.61;95519.47;4360044;32;20199;-61
2022/01/07 10:46:13;;;;;;;0.57;0.57;;;;;;;2.30;63.44;95512.81;4360143;32;20285;-60
2022/01/07 10:48:51;;;;;;;0.93;0.60;;;;;;;2.46;63.17;95505.22;4349888;32;20304;-61
2022/01/07 10:51:25;;;;;;;0.97;0.90;;;;;;;2.49;62.71;95502.13;4352556;32;20345;-60
2022/01/07 10:53:54;;;;;;;0.90;0.90;;;;;;;2.47;62.61;95488.47;4359844;32;20277;-60
2022/01/07 10:56:21;;;;;;;0.60;0.60;;;;;;;2.40;63.23;95488.63;4359875;32;20284;-60
2022/01/07 10:58:47;;;;;;;0.80;0.80;;;;;;;2.12;63.53;95481.63;4362423;32;20276;-61
2022/01/07 11:01:21;;;;;;;2.03;0.90;;;;;;;1.99;63.67;95487.94;4347390;32;20359;-60
2022/01/07 11:03:55;;;;;;;0.80;0.80;;;;;;;2.26;63.65;95482.94;4357089;32;20184;-60
2022/01/07 11:06:22;;;;;;;2.63;0.87;;;;;;;2.31;63.32;95476.97;4372697;32;20284;-60
2022/01/07 11:08:49;;;;;;;2.00;0.87;;;;;;;2.42;62.78;95470.88;4373018;32;20272;-60
2022/01/07 11:11:14;;;;;;;0.80;0.80;;;;;;;2.72;61.55;95475.75;4359544;32;20355;-60
2022/01/07 11:13:41;;;;;;;0.90;0.80;;;;;;;2.49;61.42;95473.34;4353814;32;20274;-61
2022/01/07 11:16:06;;;;;;;0.80;0.80;;;;;;;2.45;61.69;95461.75;4364921;32;20184;-60
2022/01/07 11:18:35;;;;;;;0.87;0.87;;;;;;;2.40;60.83;95462.47;4357335;32;20362;-61
2022/01/07 11:21:06;;;;;;;1.50;0.70;;;;;;;2.89;59.63;95462.66;4356514;32;20181;-59
2022/01/07 11:23:37;;;;;;;0.90;0.90;;;;;;;3.01;59.78;95465.94;4341932;32;20309;-60
2022/01/07 11:26:05;;;;;;;0.87;0.87;;;;;;;2.86;59.89;95455.28;4362067;32;20322;-59
2022/01/07 11:28:31;;;;;;;1.03;0.60;;;;;;;3.06;59.37;95452.94;4359291;32;20308;-60
2022/01/07 11:31:15;;;;;;;1.20;1.10;;;;;;;2.65;59.96;95457.59;4357242;32;20290;-60
2022/01/07 11:33:41;;;;;;;2.97;0.80;;;;;;;2.42;61.33;95449.94;4361377;32;20189;-60
2022/01/07 11:36:12;;;;;;;0.73;0.70;;;;;;;2.50;61.07;95452.13;4365531;32;20304;-60
2022/01/07 11:38:46;;;;;;;0.67;0.67;;;;;;;2.60;61.27;95444.44;4373036;32;20291;-60
2022/01/07 11:41:53;;;;;;;1.83;1.00;;;;;;;2.56;60.90;95440.72;4363392;32;20317;-60
2022/01/07 11:44:27;;;;;;;1.13;0.80;;;;;;;2.76;61.14;95442.81;4364027;32;20334;-60
2022/01/07 11:47:13;;;;;;;0.83;0.83;;;;;;;2.76;60.08;95441.00;4357119;32;20273;-60
2022/01/07 11:49:39;;;;;;;1.03;0.90;;;;;;;2.76;60.01;95438.38;4347359;32;20269;-61
2022/01/07 11:52:30;;;;;;;0.80;0.70;;;;;;;2.95;59.69;95438.09;4370433;32;20300;-61
2022/01/07 11:55:23;;;;;;;1.20;0.90;;;;;;;2.89;59.45;95447.72;4362313;32;20366;-62